createdAt,value
2022-12-31T20:03:26.172Z,981.07
2022-12-31T20:04:26.033Z,981.08
2022-12-31T20:05:26.028Z,981.08
2022-12-31T20:06:26.027Z,981.11
2022-12-31T20:07:27.361Z,981.10
2022-12-31T20:08:26.011Z,981.11
2022-12-31T20:09:25.999Z,981.13
2022-12-31T20:10:25.984Z,981.11
2022-12-31T20:11:26.003Z,981.12
2022-12-31T20:12:25.966Z,981.11
2022-12-31T20:13:25.969Z,981.10
2022-12-31T20:14:25.971Z,981.15
2022-12-31T20:15:25.970Z,981.20
2022-12-31T20:16:25.974Z,981.20
2022-12-31T20:17:25.947Z,981.21
2022-12-31T20:18:25.930Z,981.22
2022-12-31T20:19:25.937Z,981.21
2022-12-31T20:20:25.909Z,981.24
2022-12-31T20:21:25.936Z,981.23
2022-12-31T20:22:25.892Z,981.22
2022-12-31T20:23:25.890Z,981.22
2022-12-31T20:24:25.875Z,981.23
2022-12-31T20:25:25.869Z,981.22
2022-12-31T20:26:25.862Z,981.23
2022-12-31T20:27:25.882Z,981.20
2022-12-31T20:28:25.851Z,981.18
2022-12-31T20:29:25.840Z,981.23
2022-12-31T20:30:25.886Z,981.23
2022-12-31T20:31:25.821Z,981.24
2022-12-31T20:32:25.816Z,981.28
2022-12-31T20:33:25.818Z,981.30
2022-12-31T20:34:25.795Z,981.32
2022-12-31T20:35:25.822Z,981.32
2022-12-31T20:36:25.801Z,981.37
2022-12-31T20:37:25.783Z,981.36
2022-12-31T20:38:25.768Z,981.40
2022-12-31T20:39:25.764Z,981.40
2022-12-31T20:40:25.756Z,981.40
2022-12-31T20:41:25.771Z,981.43
2022-12-31T20:42:25.754Z,981.38
2022-12-31T20:43:25.744Z,981.42
2022-12-31T20:44:25.725Z,981.39
2022-12-31T20:45:25.728Z,981.41
2022-12-31T20:46:25.811Z,981.40
2022-12-31T20:47:25.728Z,981.46
2022-12-31T20:48:25.696Z,981.42
2022-12-31T20:49:52.207Z,981.42
2022-12-31T20:50:26.679Z,981.41
2022-12-31T20:51:25.703Z,981.42
2022-12-31T20:52:25.664Z,981.42
2022-12-31T20:53:25.650Z,981.42
2022-12-31T20:54:25.657Z,981.45
2022-12-31T20:55:25.657Z,981.43
2022-12-31T20:56:25.648Z,981.44
2022-12-31T20:57:28.831Z,981.54
2022-12-31T20:58:26.654Z,981.51
2022-12-31T20:59:25.645Z,981.55
2022-12-31T21:00:25.616Z,981.53
2022-12-31T21:01:26.262Z,981.53
2022-12-31T21:02:40.900Z,981.56
2022-12-31T21:04:03.004Z,981.55
2022-12-31T21:04:26.855Z,981.56
2022-12-31T21:05:25.843Z,981.54
2022-12-31T21:06:25.610Z,981.54
2022-12-31T21:07:25.577Z,981.60
2022-12-31T21:08:29.721Z,981.54
2022-12-31T21:09:26.545Z,981.54
2022-12-31T21:10:25.589Z,981.49
2022-12-31T21:11:25.532Z,981.48
2022-12-31T21:12:25.545Z,981.43
2022-12-31T21:13:25.532Z,981.47
2022-12-31T21:14:25.532Z,981.47
2022-12-31T21:15:25.572Z,981.48
2022-12-31T21:16:25.507Z,981.46
2022-12-31T21:17:25.493Z,981.51
2022-12-31T21:18:25.512Z,981.52
2022-12-31T21:19:25.476Z,981.51
2022-12-31T21:20:25.467Z,981.49
2022-12-31T21:21:25.486Z,981.53
2022-12-31T21:22:25.478Z,981.55
2022-12-31T21:23:25.461Z,981.55
